createdAt,value
2023-10-22T00:01:26.376Z,66.37
2023-10-22T00:03:54.284Z,66.56
2023-10-22T00:06:23.624Z,66.53
2023-10-22T00:08:51.450Z,66.36
2023-10-22T00:11:19.210Z,66.44
2023-10-22T00:13:46.975Z,66.49
2023-10-22T00:16:14.809Z,66.52
2023-10-22T00:18:42.618Z,66.49
2023-10-22T00:21:10.468Z,66.63
2023-10-22T00:23:39.631Z,66.81
2023-10-22T00:26:07.861Z,66.60
2023-10-22T00:28:35.759Z,66.67
2023-10-22T00:31:03.526Z,66.55
2023-10-22T00:33:31.468Z,66.69
2023-10-22T00:36:00.465Z,66.24
2023-10-22T00:38:28.407Z,66.54
2023-10-22T00:40:57.525Z,66.85
2023-10-22T00:43:25.288Z,66.70
2023-10-22T00:45:55.093Z,66.56
2023-10-22T00:48:23.885Z,66.60
2023-10-22T00:50:51.919Z,66.67
2023-10-22T00:53:20.068Z,66.79
2023-10-22T00:55:49.458Z,66.91
2023-10-22T00:58:22.262Z,66.55
2023-10-22T01:00:50.147Z,67.04
2023-10-22T01:03:20.205Z,66.58
2023-10-22T01:05:48.187Z,66.79
2023-10-22T01:08:16.053Z,66.91
2023-10-22T01:10:43.820Z,66.82
2023-10-22T01:13:11.682Z,66.77
2023-10-22T01:15:40.844Z,67.03
2023-10-22T01:18:09.507Z,66.90
2023-10-22T01:20:37.399Z,67.17
2023-10-22T01:23:05.181Z,66.79
2023-10-22T01:25:34.269Z,67.05
2023-10-22T01:28:02.061Z,66.97
2023-10-22T01:30:30.429Z,67.20
2023-10-22T01:32:58.288Z,66.91
2023-10-22T01:35:26.112Z,67.05
2023-10-22T01:37:53.905Z,67.00
2023-10-22T01:40:21.720Z,67.19
2023-10-22T01:42:51.570Z,67.17
2023-10-22T01:45:19.620Z,67.28
2023-10-22T01:47:47.539Z,67.10
2023-10-22T01:50:15.594Z,67.23
2023-10-22T01:52:43.318Z,67.03
2023-10-22T01:55:11.100Z,67.36
2023-10-22T01:57:38.855Z,67.29
2023-10-22T02:00:11.878Z,67.32
2023-10-22T02:02:41.062Z,67.00
2023-10-22T02:05:09.544Z,67.10
2023-10-22T02:07:39.204Z,67.06
2023-10-22T02:10:09.745Z,66.91
2023-10-22T02:12:38.201Z,67.41
2023-10-22T02:15:09.209Z,67.14
2023-10-22T02:17:38.313Z,67.47
2023-10-22T02:20:10.063Z,67.41
2023-10-22T02:22:38.316Z,67.24
2023-10-22T02:25:07.828Z,67.47
2023-10-22T02:27:36.276Z,67.40
2023-10-22T02:30:04.388Z,67.59
2023-10-22T02:32:34.062Z,67.82
2023-10-22T02:35:01.817Z,67.62
2023-10-22T02:37:29.748Z,67.90
2023-10-22T02:39:57.583Z,67.86
2023-10-22T02:42:25.376Z,67.95
2023-10-22T02:44:53.152Z,67.62
2023-10-22T02:47:20.913Z,67.64
2023-10-22T02:49:50.091Z,68.01
2023-10-22T02:52:17.887Z,67.78
2023-10-22T02:54:45.646Z,67.98
2023-10-22T02:57:13.426Z,67.93
2023-10-22T02:59:41.265Z,68.00
2023-10-22T03:02:09.040Z,67.83
2023-10-22T03:04:37.134Z,67.69
2023-10-22T03:07:06.567Z,67.84
2023-10-22T03:09:34.702Z,67.83
2023-10-22T03:12:02.558Z,68.01
2023-10-22T03:14:30.368Z,67.98
2023-10-22T03:16:58.804Z,68.07
2023-10-22T03:19:26.681Z,68.09
2023-10-22T03:21:54.391Z,67.86
2023-10-22T03:24:24.128Z,68.07
2023-10-22T03:26:51.987Z,67.88
2023-10-22T03:29:19.759Z,67.94
2023-10-22T03:31:47.584Z,67.82
2023-10-22T03:34:15.354Z,67.71
2023-10-22T03:36:43.201Z,68.11
2023-10-22T03:39:11.026Z,68.04
2023-10-22T03:41:40.315Z,67.86
2023-10-22T03:44:08.105Z,67.65
2023-10-22T03:46:35.959Z,67.55
2023-10-22T03:49:03.939Z,67.83
2023-10-22T03:51:31.783Z,67.53
2023-10-22T03:54:00.672Z,67.59
2023-10-22T03:56:28.441Z,67.44
2023-10-22T03:58:57.501Z,67.48
2023-10-22T04:01:25.300Z,67.57
2023-10-22T04:03:53.176Z,67.12
2023-10-22T04:06:21.005Z,67.40
2023-10-22T04:08:48.841Z,67.38
2023-10-22T04:11:20.854Z,67.28
2023-10-22T04:13:48.794Z,67.28
2023-10-22T04:16:18.708Z,66.96
2023-10-22T04:18:46.536Z,67.51
2023-10-22T04:21:15.463Z,67.43
2023-10-22T04:23:43.703Z,67.29
2023-10-22T04:26:14.927Z,67.19
2023-10-22T04:28:43.932Z,67.54
2023-10-22T04:31:11.796Z,67.21
2023-10-22T04:33:41.753Z,67.24
2023-10-22T04:36:17.136Z,67.25
2023-10-22T04:38:45.020Z,67.11
2023-10-22T04:41:13.156Z,67.35
2023-10-22T04:43:41.073Z,67.43
2023-10-22T04:46:08.919Z,67.27
2023-10-22T04:48:37.201Z,67.28
2023-10-22T04:51:10.404Z,67.21
2023-10-22T04:53:38.482Z,67.25
2023-10-22T04:56:07.433Z,67.10
2023-10-22T04:58:36.502Z,67.20
2023-10-22T05:01:04.385Z,67.33
2023-10-22T05:03:32.337Z,67.30
2023-10-22T05:06:07.793Z,67.38
2023-10-22T05:08:39.416Z,66.99
2023-10-22T05:11:08.020Z,67.20
2023-10-22T05:13:35.825Z,67.07
2023-10-22T05:16:03.919Z,67.10
2023-10-22T05:18:31.977Z,67.27
2023-10-22T05:21:03.163Z,67.07
2023-10-22T05:23:31.228Z,67.17
2023-10-22T05:26:06.355Z,67.12
2023-10-22T05:28:34.275Z,66.89
2023-10-22T05:31:02.091Z,66.84
2023-10-22T05:33:30.044Z,67.02
2023-10-22T05:35:58.311Z,66.84
2023-10-22T05:38:26.072Z,66.68
2023-10-22T05:40:53.813Z,66.79
2023-10-22T05:43:22.988Z,67.10
2023-10-22T05:45:58.770Z,66.80
2023-10-22T05:48:26.773Z,67.03
2023-10-22T05:50:54.589Z,67.14
2023-10-22T05:53:22.430Z,66.84
2023-10-22T05:55:57.353Z,67.12
2023-10-22T05:58:26.568Z,66.86
2023-10-22T06:00:55.297Z,66.89
2023-10-22T06:03:23.410Z,67.18
2023-10-22T06:05:51.327Z,67.11
2023-10-22T06:08:19.159Z,67.00
2023-10-22T06:10:47.525Z,67.04
2023-10-22T06:13:15.473Z,66.89
2023-10-22T06:15:45.791Z,67.25
2023-10-22T06:18:14.171Z,67.39
2023-10-22T06:20:42.309Z,67.01
2023-10-22T06:23:10.384Z,67.32
2023-10-22T06:25:38.116Z,67.41
2023-10-22T06:28:06.881Z,67.01
2023-10-22T06:30:35.213Z,67.18
2023-10-22T06:33:05.248Z,67.27
2023-10-22T06:35:33.391Z,66.95
2023-10-22T06:38:01.161Z,67.04
2023-10-22T06:40:29.002Z,66.89
2023-10-22T06:42:57.191Z,66.96
2023-10-22T06:45:25.038Z,67.22
2023-10-22T06:47:52.970Z,66.94
2023-10-22T06:50:22.116Z,66.94
2023-10-22T06:52:49.838Z,67.14
2023-10-22T06:55:17.647Z,67.17
2023-10-22T06:57:47.203Z,67.26
2023-10-22T07:00:15.800Z,66.93
2023-10-22T07:02:44.960Z,67.25
2023-10-22T07:05:12.792Z,67.17
2023-10-22T07:07:44.103Z,67.20
2023-10-22T07:10:12.252Z,67.23
2023-10-22T07:12:40.128Z,67.15
2023-10-22T07:15:10.373Z,66.90
2023-10-22T07:17:38.233Z,66.94
2023-10-22T07:20:07.436Z,66.94
2023-10-22T07:22:35.216Z,67.48
2023-10-22T07:25:04.660Z,67.11
2023-10-22T07:27:32.482Z,67.10
2023-10-22T07:30:00.311Z,67.10
2023-10-22T07:32:28.171Z,67.35
2023-10-22T07:34:55.924Z,67.30
2023-10-22T07:37:24.023Z,66.97
2023-10-22T07:39:51.759Z,67.26
2023-10-22T07:42:20.945Z,67.15
2023-10-22T07:44:52.309Z,67.41
2023-10-22T07:47:20.185Z,67.42
2023-10-22T07:49:52.773Z,67.07
2023-10-22T07:52:20.670Z,67.80
2023-10-22T07:54:50.895Z,68.19
2023-10-22T07:57:20.101Z,68.47
2023-10-22T07:59:47.950Z,68.54
2023-10-22T08:02:15.714Z,68.24
2023-10-22T08:04:43.826Z,68.36
2023-10-22T08:07:11.607Z,68.17
2023-10-22T08:09:39.436Z,68.11
2023-10-22T08:12:08.766Z,67.97
2023-10-22T08:14:38.190Z,68.15
2023-10-22T08:17:06.066Z,67.98
2023-10-22T08:19:33.887Z,68.10
2023-10-22T08:22:01.909Z,68.01
2023-10-22T08:24:30.625Z,68.28
2023-10-22T08:27:01.076Z,68.25
2023-10-22T08:29:28.894Z,68.38
2023-10-22T08:31:58.096Z,68.04
2023-10-22T08:34:26.138Z,68.22
2023-10-22T08:36:53.922Z,68.25
2023-10-22T08:39:21.830Z,68.12
2023-10-22T08:42:01.308Z,67.86
2023-10-22T08:44:30.371Z,68.30
2023-10-22T08:46:59.592Z,68.45
2023-10-22T08:49:29.373Z,68.25
2023-10-22T08:51:58.160Z,68.41
2023-10-22T08:54:27.637Z,68.26
2023-10-22T08:56:55.937Z,68.55
2023-10-22T08:59:24.499Z,68.22
2023-10-22T09:01:52.921Z,68.26
2023-10-22T09:04:22.334Z,68.43
2023-10-22T09:06:54.655Z,68.43
2023-10-22T09:09:34.626Z,68.72
2023-10-22T09:12:05.081Z,68.25
2023-10-22T09:14:32.992Z,68.63
2023-10-22T09:17:15.852Z,68.58
2023-10-22T09:19:48.269Z,68.69
2023-10-22T09:22:23.740Z,69.08
2023-10-22T09:24:54.125Z,69.21
2023-10-22T09:27:26.213Z,69.27
2023-10-22T09:29:54.759Z,69.06
2023-10-22T09:32:23.068Z,69.18
2023-10-22T09:34:52.299Z,69.02
2023-10-22T09:37:20.122Z,69.12
2023-10-22T09:39:47.980Z,69.24
2023-10-22T09:42:18.156Z,69.22
2023-10-22T09:44:46.788Z,69.14
2023-10-22T09:47:22.422Z,69.62
2023-10-22T09:49:54.142Z,69.38
2023-10-22T09:52:24.430Z,69.32
2023-10-22T09:54:55.921Z,69.35
2023-10-22T09:57:29.817Z,69.52
2023-10-22T09:59:59.826Z,69.39
2023-10-22T10:02:28.574Z,69.29
2023-10-22T10:04:59.754Z,69.40
2023-10-22T10:07:28.065Z,69.37
2023-10-22T10:09:57.011Z,69.38
2023-10-22T10:12:28.997Z,69.29
2023-10-22T10:14:57.020Z,69.38
2023-10-22T10:17:24.893Z,69.76
2023-10-22T10:19:52.816Z,69.67
2023-10-22T10:22:40.375Z,69.53
2023-10-22T10:25:30.826Z,69.51
2023-10-22T10:28:03.307Z,69.60
2023-10-22T10:30:31.591Z,69.58
2023-10-22T10:33:14.283Z,69.66
2023-10-22T10:35:47.934Z,69.96
2023-10-22T10:38:29.455Z,70.01
2023-10-22T10:40:58.029Z,69.79
2023-10-22T10:44:03.741Z,69.96
2023-10-22T10:46:32.776Z,70.03
2023-10-22T10:49:00.743Z,70.12
2023-10-22T10:51:29.470Z,70.15
2023-10-22T10:54:22.711Z,70.31
2023-10-22T10:56:56.242Z,70.67
2023-10-22T10:59:35.610Z,70.44
2023-10-22T11:02:09.027Z,70.83
2023-10-22T11:04:38.819Z,70.84
2023-10-22T11:07:18.776Z,70.87
2023-10-22T11:09:55.969Z,70.74
2023-10-22T11:12:25.987Z,70.87
2023-10-22T11:14:58.057Z,70.75
2023-10-22T11:17:26.640Z,71.04
2023-10-22T11:19:54.770Z,71.00
2023-10-22T11:22:22.661Z,71.06
2023-10-22T11:24:52.286Z,71.05
2023-10-22T11:27:22.100Z,71.08
2023-10-22T11:29:51.136Z,71.23
2023-10-22T11:32:20.011Z,71.31
2023-10-22T11:34:52.549Z,72.21
2023-10-22T11:37:21.820Z,72.19
2023-10-22T11:39:50.111Z,72.15
2023-10-22T11:42:18.001Z,71.78
2023-10-22T11:44:47.779Z,71.93
2023-10-22T11:47:26.998Z,71.89
2023-10-22T11:49:55.658Z,71.88
2023-10-22T11:52:39.814Z,72.13
2023-10-22T11:55:15.104Z,71.75
2023-10-22T11:57:46.660Z,71.92
2023-10-22T12:00:16.818Z,71.95
2023-10-22T12:02:44.917Z,71.77
2023-10-22T12:05:13.648Z,71.76
2023-10-22T12:07:41.606Z,72.05
2023-10-22T12:10:11.469Z,72.15
2023-10-22T12:12:39.518Z,72.11
2023-10-22T12:15:09.233Z,72.09
2023-10-22T12:17:38.474Z,72.14
2023-10-22T12:20:07.465Z,72.33
2023-10-22T12:22:35.294Z,71.79
2023-10-22T12:25:05.193Z,71.21
2023-10-22T12:27:33.273Z,70.73
2023-10-22T12:30:01.178Z,70.53
2023-10-22T12:32:29.108Z,69.71
2023-10-22T12:34:58.519Z,69.21
2023-10-22T12:37:26.314Z,68.58
2023-10-22T12:39:54.596Z,68.07
2023-10-22T12:42:22.404Z,68.50
2023-10-22T12:44:50.452Z,68.84
2023-10-22T12:47:18.888Z,69.04
2023-10-22T12:49:46.997Z,69.46
2023-10-22T12:52:16.304Z,69.48
2023-10-22T12:54:46.164Z,69.87
2023-10-22T12:57:14.194Z,69.96
2023-10-22T12:59:42.024Z,70.13
2023-10-22T13:02:11.236Z,70.44
2023-10-22T13:04:39.504Z,70.30
2023-10-22T13:07:08.106Z,70.46
2023-10-22T13:09:37.323Z,70.71
2023-10-22T13:12:05.663Z,70.56
2023-10-22T13:14:33.515Z,70.67
2023-10-22T13:17:01.671Z,71.00
2023-10-22T13:19:29.536Z,70.76
2023-10-22T13:21:57.360Z,70.90
2023-10-22T13:24:25.347Z,71.08
2023-10-22T13:26:55.063Z,71.06
2023-10-22T13:29:22.889Z,70.75
2023-10-22T13:31:51.498Z,71.03
2023-10-22T13:34:19.264Z,71.20
2023-10-22T13:36:47.412Z,71.22
2023-10-22T13:39:15.278Z,71.05
2023-10-22T13:41:43.893Z,71.06
2023-10-22T13:44:13.164Z,70.87
2023-10-22T13:46:40.964Z,70.80
2023-10-22T13:49:08.776Z,70.97
2023-10-22T13:51:36.574Z,70.86
2023-10-22T13:54:04.842Z,70.57
2023-10-22T13:56:32.611Z,70.78
2023-10-22T13:59:01.491Z,70.69
2023-10-22T14:01:30.737Z,70.93
2023-10-22T14:03:58.718Z,70.87
2023-10-22T14:06:26.651Z,70.81
2023-10-22T14:08:54.536Z,70.52
2023-10-22T14:11:23.122Z,70.39
2023-10-22T14:13:52.230Z,69.93
2023-10-22T14:16:21.612Z,69.85
2023-10-22T14:18:50.962Z,69.62
2023-10-22T14:21:21.581Z,69.95
2023-10-22T14:23:49.452Z,69.77
2023-10-22T14:26:17.230Z,69.83
2023-10-22T14:28:45.049Z,69.85
2023-10-22T14:31:12.843Z,70.06
2023-10-22T14:33:41.932Z,69.84
2023-10-22T14:36:13.452Z,69.96
2023-10-22T14:38:41.307Z,70.05
2023-10-22T14:41:09.131Z,70.14
2023-10-22T14:43:36.984Z,69.90
2023-10-22T14:46:05.375Z,69.93
2023-10-22T14:48:33.638Z,70.00
2023-10-22T14:51:02.778Z,69.88
2023-10-22T14:53:32.840Z,70.02
2023-10-22T14:56:01.899Z,70.19
2023-10-22T14:58:30.550Z,70.23
2023-10-22T15:01:03.069Z,70.02
2023-10-22T15:03:31.292Z,69.82
2023-10-22T15:05:59.534Z,69.75
2023-10-22T15:08:27.565Z,69.63
2023-10-22T15:10:56.772Z,70.03
2023-10-22T15:13:24.778Z,69.90
2023-10-22T15:15:52.565Z,69.84
2023-10-22T15:18:20.465Z,69.90
2023-10-22T15:20:50.620Z,69.62
2023-10-22T15:23:19.142Z,69.77
2023-10-22T15:25:48.172Z,69.79
2023-10-22T15:28:18.275Z,69.52
2023-10-22T15:30:47.223Z,69.52
2023-10-22T15:33:15.784Z,69.78
2023-10-22T15:35:43.669Z,69.79
2023-10-22T15:38:14.329Z,69.79
2023-10-22T15:40:42.198Z,69.91
2023-10-22T15:43:12.009Z,69.88
2023-10-22T15:45:45.955Z,69.99
2023-10-22T15:48:14.522Z,70.01
2023-10-22T15:50:43.821Z,70.14
2023-10-22T15:53:12.090Z,70.04
2023-10-22T15:55:40.245Z,70.32
2023-10-22T15:58:08.000Z,70.33
2023-10-22T16:00:37.078Z,70.48
2023-10-22T16:03:06.566Z,70.34
2023-10-22T16:05:38.922Z,70.25
2023-10-22T16:08:08.017Z,69.57
2023-10-22T16:10:36.234Z,68.75
2023-10-22T16:13:04.895Z,68.10
2023-10-22T16:15:32.778Z,67.59
2023-10-22T16:18:00.692Z,66.95
2023-10-22T16:20:29.971Z,66.07
2023-10-22T16:22:58.438Z,65.45
2023-10-22T16:25:26.587Z,65.12
2023-10-22T16:27:54.340Z,64.46
2023-10-22T16:30:22.847Z,63.80
2023-10-22T16:32:53.694Z,63.51
2023-10-22T16:35:21.647Z,63.56
2023-10-22T16:37:50.783Z,64.26
2023-10-22T16:40:18.621Z,64.83
2023-10-22T16:42:47.454Z,65.31
2023-10-22T16:45:15.398Z,65.85
2023-10-22T16:47:43.229Z,66.27
2023-10-22T16:50:11.671Z,66.73
2023-10-22T16:52:39.437Z,67.13
2023-10-22T16:55:10.033Z,67.42
2023-10-22T16:57:37.860Z,67.49
2023-10-22T17:00:08.471Z,67.61
2023-10-22T17:02:36.479Z,67.71
2023-10-22T17:05:04.382Z,68.02
2023-10-22T17:07:34.641Z,68.05
2023-10-22T17:10:03.155Z,68.30
2023-10-22T17:12:31.390Z,68.27
2023-10-22T17:14:59.913Z,68.48
2023-10-22T17:17:28.147Z,68.68
2023-10-22T17:19:56.081Z,68.70
2023-10-22T17:22:23.952Z,68.88
2023-10-22T17:24:51.700Z,69.03
2023-10-22T17:27:19.532Z,69.07
2023-10-22T17:29:48.656Z,68.99
2023-10-22T17:32:16.402Z,69.04
2023-10-22T17:34:44.157Z,69.35
2023-10-22T17:37:12.560Z,69.39
2023-10-22T17:39:41.941Z,69.39
2023-10-22T17:42:11.772Z,69.47
2023-10-22T17:44:40.827Z,69.41
2023-10-22T17:47:10.077Z,69.48
2023-10-22T17:49:38.181Z,69.57
2023-10-22T17:52:06.733Z,69.73
2023-10-22T17:54:34.533Z,69.61
2023-10-22T17:57:02.709Z,69.97
2023-10-22T17:59:30.515Z,69.83
2023-10-22T18:01:58.765Z,69.88
2023-10-22T18:04:28.513Z,69.87
2023-10-22T18:06:56.734Z,69.54
2023-10-22T18:09:24.548Z,69.75
2023-10-22T18:11:52.368Z,69.67
2023-10-22T18:14:20.130Z,69.68
2023-10-22T18:16:49.824Z,69.84
2023-10-22T18:19:27.234Z,69.59
2023-10-22T18:22:05.029Z,69.85
2023-10-22T18:24:32.850Z,69.85
2023-10-22T18:27:00.626Z,69.89
2023-10-22T18:29:28.333Z,69.76
2023-10-22T18:31:57.634Z,69.88
2023-10-22T18:34:28.571Z,69.74
2023-10-22T18:36:56.419Z,69.77
2023-10-22T18:39:25.624Z,69.80
2023-10-22T18:42:07.545Z,69.73
2023-10-22T18:44:39.906Z,69.61
2023-10-22T18:47:07.876Z,69.87
2023-10-22T18:49:35.678Z,69.68
2023-10-22T18:52:05.130Z,69.82
2023-10-22T18:54:34.259Z,69.68
2023-10-22T18:57:02.020Z,69.77
2023-10-22T18:59:29.829Z,69.71
2023-10-22T19:01:57.689Z,69.76
2023-10-22T19:04:25.597Z,69.88
2023-10-22T19:06:55.880Z,69.83
2023-10-22T19:09:23.972Z,69.83
2023-10-22T19:11:53.149Z,69.74
2023-10-22T19:14:20.917Z,69.81
2023-10-22T19:16:48.719Z,69.85
2023-10-22T19:19:16.664Z,69.82
2023-10-22T19:21:44.539Z,69.73
2023-10-22T19:24:12.362Z,69.87
2023-10-22T19:26:40.151Z,69.72
2023-10-22T19:29:09.315Z,69.74
2023-10-22T19:31:39.130Z,69.59
2023-10-22T19:34:07.152Z,69.78
2023-10-22T19:36:35.227Z,69.74
2023-10-22T19:39:03.187Z,69.61
2023-10-22T19:41:31.292Z,69.83
2023-10-22T19:43:59.920Z,69.62
2023-10-22T19:46:29.185Z,69.70
2023-10-22T19:48:57.013Z,69.49
2023-10-22T19:51:24.854Z,69.79
2023-10-22T19:53:53.199Z,69.71
2023-10-22T19:56:20.933Z,69.64
2023-10-22T19:58:49.353Z,69.33
2023-10-22T20:01:19.586Z,69.48
2023-10-22T20:03:50.397Z,69.38
2023-10-22T20:06:20.688Z,69.35
2023-10-22T20:08:49.694Z,69.46
2023-10-22T20:11:17.717Z,69.38
2023-10-22T20:13:46.352Z,69.16
2023-10-22T20:16:21.878Z,69.38
2023-10-22T20:18:52.242Z,69.33
2023-10-22T20:21:21.068Z,69.25
2023-10-22T20:23:49.440Z,69.41
2023-10-22T20:26:17.242Z,69.23
2023-10-22T20:28:46.426Z,69.25
2023-10-22T20:31:15.649Z,69.27
2023-10-22T20:33:45.297Z,69.27
2023-10-22T20:36:16.997Z,68.85
2023-10-22T20:38:45.836Z,69.37
2023-10-22T20:41:14.435Z,69.49
2023-10-22T20:43:44.072Z,69.10
2023-10-22T20:46:12.093Z,69.21
2023-10-22T20:48:40.088Z,69.38
2023-10-22T20:51:10.274Z,68.98
2023-10-22T20:53:40.367Z,69.22
2023-10-22T20:56:09.708Z,69.19
2023-10-22T20:58:37.551Z,69.16
2023-10-22T21:01:16.884Z,68.92
2023-10-22T21:03:46.347Z,68.71
2023-10-22T21:06:14.877Z,68.61
2023-10-22T21:08:44.893Z,68.83
2023-10-22T21:11:13.569Z,68.48
2023-10-22T21:13:41.532Z,68.35
2023-10-22T21:16:11.920Z,68.37
2023-10-22T21:18:42.298Z,68.36
2023-10-22T21:21:10.175Z,68.30
2023-10-22T21:23:39.799Z,68.14
2023-10-22T21:26:09.522Z,68.27
2023-10-22T21:28:37.403Z,68.03
2023-10-22T21:31:06.531Z,68.12
2023-10-22T21:33:34.714Z,68.05
2023-10-22T21:36:03.879Z,67.90
2023-10-22T21:38:32.041Z,67.81
2023-10-22T21:41:00.103Z,67.84
2023-10-22T21:43:29.540Z,68.15
2023-10-22T21:46:06.781Z,68.15
2023-10-22T21:48:34.684Z,67.92
2023-10-22T21:51:02.501Z,68.24
2023-10-22T21:53:30.373Z,68.11
2023-10-22T21:55:59.585Z,68.49
2023-10-22T21:58:27.420Z,68.24
2023-10-22T22:00:57.123Z,68.33
2023-10-22T22:03:25.155Z,68.19
2023-10-22T22:05:53.063Z,68.55
2023-10-22T22:08:20.883Z,68.59
2023-10-22T22:10:48.751Z,68.46
2023-10-22T22:13:17.805Z,68.71
2023-10-22T22:15:45.755Z,68.62
2023-10-22T22:18:14.957Z,68.79
2023-10-22T22:20:42.741Z,68.74
2023-10-22T22:23:11.026Z,68.92
2023-10-22T22:25:45.090Z,68.89
2023-10-22T22:28:13.917Z,68.84
2023-10-22T22:30:41.926Z,68.82
2023-10-22T22:33:09.771Z,68.79
2023-10-22T22:35:38.903Z,68.96
2023-10-22T22:38:06.771Z,68.88
2023-10-22T22:40:34.597Z,68.73
2023-10-22T22:43:02.327Z,68.76
2023-10-22T22:45:30.179Z,68.78
2023-10-22T22:47:58.034Z,68.76
2023-10-22T22:50:26.089Z,68.98
2023-10-22T22:52:55.228Z,68.89
2023-10-22T22:55:23.056Z,69.08
2023-10-22T22:57:50.846Z,68.77
2023-10-22T23:00:19.688Z,68.85
2023-10-22T23:02:47.638Z,69.05
2023-10-22T23:05:15.496Z,68.97
2023-10-22T23:07:43.287Z,68.84
2023-10-22T23:10:12.860Z,69.13
2023-10-22T23:12:40.713Z,69.10
2023-10-22T23:15:10.336Z,69.03
2023-10-22T23:17:38.134Z,68.79
2023-10-22T23:20:06.947Z,69.20
2023-10-22T23:22:34.772Z,69.05
2023-10-22T23:25:02.532Z,69.10
2023-10-22T23:27:31.686Z,68.82
2023-10-22T23:29:59.543Z,68.78
2023-10-22T23:32:27.398Z,68.79
2023-10-22T23:34:55.160Z,69.11
2023-10-22T23:37:22.939Z,68.77
2023-10-22T23:39:52.542Z,68.90
2023-10-22T23:42:20.430Z,69.02
2023-10-22T23:44:49.587Z,68.69
2023-10-22T23:47:17.360Z,68.66
2023-10-22T23:49:45.163Z,68.50
2023-10-22T23:52:12.957Z,68.87
2023-10-22T23:54:40.962Z,68.56
2023-10-22T23:57:08.932Z,68.76
2023-10-22T23:59:36.822Z,68.52
